sensor_id;sensor_type;location;lat;lon;timestamp;P1;P2;P0
57049;PMS7003;42935;50.966;16.992;2022-11-15T00:01:37;82;65;38
57049;PMS7003;42935;50.966;16.992;2022-11-15T00:04:50;83;64;37
57049;PMS7003;42935;50.966;16.992;2022-11-15T00:08:30;87;69;39
57049;PMS7003;42935;50.966;16.992;2022-11-15T00:12:15;86;65;37
57049;PMS7003;42935;50.966;16.992;2022-11-15T00:16:03;81;63;38
57049;PMS7003;42935;50.966;16.992;2022-11-15T00:19:50;85;66;39
57049;PMS7003;42935;50.966;16.992;2022-11-15T00:23:39;82;66;39
57049;PMS7003;42935;50.966;16.992;2022-11-15T00:27:20;88;64;39
57049;PMS7003;42935;50.966;16.992;2022-11-15T00:31:04;87;65;38
57049;PMS7003;42935;50.966;16.992;2022-11-15T00:34:49;86;68;39
57049;PMS7003;42935;50.966;16.992;2022-11-15T00:38:06;83;65;38
57049;PMS7003;42935;50.966;16.992;2022-11-15T00:41:53;82;65;39
57049;PMS7003;42935;50.966;16.992;2022-11-15T00:45:33;88;64;38
57049;PMS7003;42935;50.966;16.992;2022-11-15T00:48:46;87;65;40
57049;PMS7003;42935;50.966;16.992;2022-11-15T00:52:00;85;62;38
57049;PMS7003;42935;50.966;16.992;2022-11-15T00:55:41;82;64;37
57049;PMS7003;42935;50.966;16.992;2022-11-15T00:59:29;82;66;37
57049;PMS7003;42935;50.966;16.992;2022-11-15T01:02:44;85;65;37
57049;PMS7003;42935;50.966;16.992;2022-11-15T01:06:28;85;63;37
57049;PMS7003;42935;50.966;16.992;2022-11-15T01:10:06;86;66;37
57049;PMS7003;42935;50.966;16.992;2022-11-15T01:13:23;78;62;37
57049;PMS7003;42935;50.966;16.992;2022-11-15T01:17:03;83;62;37
57049;PMS7003;42935;50.966;16.992;2022-11-15T01:20:46;81;61;37
57049;PMS7003;42935;50.966;16.992;2022-11-15T01:23:59;81;62;37
57049;PMS7003;42935;50.966;16.992;2022-11-15T01:27:12;81;59;35
57049;PMS7003;42935;50.966;16.992;2022-11-15T01:30:53;78;61;37
57049;PMS7003;42935;50.966;16.992;2022-11-15T01:34:40;80;61;37
57049;PMS7003;42935;50.966;16.992;2022-11-15T01:37:57;77;58;35
57049;PMS7003;42935;50.966;16.992;2022-11-15T01:41:43;82;62;37
57049;PMS7003;42935;50.966;16.992;2022-11-15T01:45:01;80;60;36
57049;PMS7003;42935;50.966;16.992;2022-11-15T01:48:17;79;59;36
57049;PMS7003;42935;50.966;16.992;2022-11-15T01:51:58;82;61;37
57049;PMS7003;42935;50.966;16.992;2022-11-15T01:55:44;84;63;37
57049;PMS7003;42935;50.966;16.992;2022-11-15T01:59:32;83;61;37
57049;PMS7003;42935;50.966;16.992;2022-11-15T02:03:18;79;60;37
57049;PMS7003;42935;50.966;16.992;2022-11-15T02:07:10;80;60;36
57049;PMS7003;42935;50.966;16.992;2022-11-15T02:10:29;82;60;36
57049;PMS7003;42935;50.966;16.992;2022-11-15T02:13:44;81;60;36
57049;PMS7003;42935;50.966;16.992;2022-11-15T02:32:20;78;61;36
57049;PMS7003;42935;50.966;16.992;2022-11-15T02:40:15;84;61;37
57049;PMS7003;42935;50.966;16.992;2022-11-15T02:47:41;73;54;34
57049;PMS7003;42935;50.966;16.992;2022-11-15T02:51:34;77;55;34
57049;PMS7003;42935;50.966;16.992;2022-11-15T03:10:09;79;62;37
57049;PMS7003;42935;50.966;16.992;2022-11-15T03:14:00;75;56;35
57049;PMS7003;42935;50.966;16.992;2022-11-15T03:17:52;79;58;37
57049;PMS7003;42935;50.966;16.992;2022-11-15T03:21:47;75;55;34
57049;PMS7003;42935;50.966;16.992;2022-11-15T03:25:41;80;61;37
57049;PMS7003;42935;50.966;16.992;2022-11-15T03:29:35;79;56;35
57049;PMS7003;42935;50.966;16.992;2022-11-15T03:33:27;75;56;35
57049;PMS7003;42935;50.966;16.992;2022-11-15T03:37:16;79;58;36
57049;PMS7003;42935;50.966;16.992;2022-11-15T03:41:05;79;57;35
57049;PMS7003;42935;50.966;16.992;2022-11-15T03:44:33;70;51;30
57049;PMS7003;42935;50.966;16.992;2022-11-15T03:48:24;76;56;36
57049;PMS7003;42935;50.966;16.992;2022-11-15T03:52:22;75;56;35
57049;PMS7003;42935;50.966;16.992;2022-11-15T03:55:33;73;53;33
57049;PMS7003;42935;50.966;16.992;2022-11-15T03:58:47;69;52;33
57049;PMS7003;42935;50.966;16.992;2022-11-15T04:02:04;71;54;34
57049;PMS7003;42935;50.966;16.992;2022-11-15T04:05:46;74;54;33
57049;PMS7003;42935;50.966;16.992;2022-11-15T04:09:03;71;54;34
57049;PMS7003;42935;50.966;16.992;2022-11-15T04:12:12;74;53;33
57049;PMS7003;42935;50.966;16.992;2022-11-15T04:15:40;76;56;34
57049;PMS7003;42935;50.966;16.992;2022-11-15T04:18:56;72;52;33
57049;PMS7003;42935;50.966;16.992;2022-11-15T04:22:56;75;55;34
57049;PMS7003;42935;50.966;16.992;2022-11-15T04:26:54;76;57;34
57049;PMS7003;42935;50.966;16.992;2022-11-15T04:30:12;78;57;35
57049;PMS7003;42935;50.966;16.992;2022-11-15T04:33:52;76;56;35
57049;PMS7003;42935;50.966;16.992;2022-11-15T04:37:09;93;69;39
57049;PMS7003;42935;50.966;16.992;2022-11-15T04:40:23;88;63;38
57049;PMS7003;42935;50.966;16.992;2022-11-15T04:43:42;91;69;38
57049;PMS7003;42935;50.966;16.992;2022-11-15T04:47:01;78;57;34
57049;PMS7003;42935;50.966;16.992;2022-11-15T04:50:43;74;57;33
57049;PMS7003;42935;50.966;16.992;2022-11-15T04:53:56;84;62;37
57049;PMS7003;42935;50.966;16.992;2022-11-15T04:57:39;81;61;39
57049;PMS7003;42935;50.966;16.992;2022-11-15T05:01:20;80;59;37
57049;PMS7003;42935;50.966;16.992;2022-11-15T05:04:30;76;57;35
57049;PMS7003;42935;50.966;16.992;2022-11-15T05:07:44;80;58;37
57049;PMS7003;42935;50.966;16.992;2022-11-15T05:11:29;83;63;37
57049;PMS7003;42935;50.966;16.992;2022-11-15T05:15:10;85;62;38
57049;PMS7003;42935;50.966;16.992;2022-11-15T05:18:54;72;54;34
57049;PMS7003;42935;50.966;16.992;2022-11-15T05:22:42;90;71;41
57049;PMS7003;42935;50.966;16.992;2022-11-15T05:26:26;88;70;40
57049;PMS7003;42935;50.966;16.992;2022-11-15T05:30:15;87;66;39
57049;PMS7003;42935;50.966;16.992;2022-11-15T05:33:29;83;60;38
57049;PMS7003;42935;50.966;16.992;2022-11-15T05:37:13;86;64;38
57049;PMS7003;42935;50.966;16.992;2022-11-15T05:40:28;85;64;37
57049;PMS7003;42935;50.966;16.992;2022-11-15T05:43:43;85;68;38
57049;PMS7003;42935;50.966;16.992;2022-11-15T05:46:53;86;67;39
57049;PMS7003;42935;50.966;16.992;2022-11-15T05:50:11;80;59;37
57049;PMS7003;42935;50.966;16.992;2022-11-15T05:53:57;85;62;38
57049;PMS7003;42935;50.966;16.992;2022-11-15T05:57:17;78;58;37
57049;PMS7003;42935;50.966;16.992;2022-11-15T06:01:02;73;52;32
57049;PMS7003;42935;50.966;16.992;2022-11-15T06:04:51;74;55;34
57049;PMS7003;42935;50.966;16.992;2022-11-15T06:08:09;74;56;34
57049;PMS7003;42935;50.966;16.992;2022-11-15T06:11:27;77;57;37
57049;PMS7003;42935;50.966;16.992;2022-11-15T06:15:07;71;52;33
57049;PMS7003;42935;50.966;16.992;2022-11-15T06:18:26;69;52;33
57049;PMS7003;42935;50.966;16.992;2022-11-15T06:22:06;73;53;33
57049;PMS7003;42935;50.966;16.992;2022-11-15T06:25:22;79;61;37
57049;PMS7003;42935;50.966;16.992;2022-11-15T06:28:40;84;63;39
57049;PMS7003;42935;50.966;16.992;2022-11-15T06:31:58;87;67;40
57049;PMS7003;42935;50.966;16.992;2022-11-15T06:35:44;86;64;38
57049;PMS7003;42935;50.966;16.992;2022-11-15T06:39:06;83;63;38
57049;PMS7003;42935;50.966;16.992;2022-11-15T06:42:23;82;61;37
57049;PMS7003;42935;50.966;16.992;2022-11-15T06:45:37;75;56;35
57049;PMS7003;42935;50.966;16.992;2022-11-15T06:49:17;80;58;35
57049;PMS7003;42935;50.966;16.992;2022-11-15T06:52:35;77;56;35
57049;PMS7003;42935;50.966;16.992;2022-11-15T06:56:20;74;55;34
57049;PMS7003;42935;50.966;16.992;2022-11-15T07:00:08;78;57;36
57049;PMS7003;42935;50.966;16.992;2022-11-15T07:03:26;72;53;33
57049;PMS7003;42935;50.966;16.992;2022-11-15T07:07:08;72;53;34
57049;PMS7003;42935;50.966;16.992;2022-11-15T07:10:48;76;56;35
57049;PMS7003;42935;50.966;16.992;2022-11-15T07:14:07;74;55;34
57049;PMS7003;42935;50.966;16.992;2022-11-15T07:17:50;76;53;34
57049;PMS7003;42935;50.966;16.992;2022-11-15T07:21:05;74;55;34
57049;PMS7003;42935;50.966;16.992;2022-11-15T07:24:52;72;52;33
57049;PMS7003;42935;50.966;16.992;2022-11-15T07:28:10;74;57;35
57049;PMS7003;42935;50.966;16.992;2022-11-15T07:31:28;75;55;35
57049;PMS7003;42935;50.966;16.992;2022-11-15T07:34:51;79;56;34
57049;PMS7003;42935;50.966;16.992;2022-11-15T07:38:31;80;61;36
57049;PMS7003;42935;50.966;16.992;2022-11-15T07:42:19;84;62;39
57049;PMS7003;42935;50.966;16.992;2022-11-15T07:46:14;86;61;37
57049;PMS7003;42935;50.966;16.992;2022-11-15T07:49:56;79;56;35
57049;PMS7003;42935;50.966;16.992;2022-11-15T07:53:40;75;56;35
57049;PMS7003;42935;50.966;16.992;2022-11-15T07:57:25;75;57;36
57049;PMS7003;42935;50.966;16.992;2022-11-15T08:00:39;80;58;37
57049;PMS7003;42935;50.966;16.992;2022-11-15T08:03:57;75;55;35
57049;PMS7003;42935;50.966;16.992;2022-11-15T08:07:37;79;59;36
57049;PMS7003;42935;50.966;16.992;2022-11-15T08:10:58;78;59;35
57049;PMS7003;42935;50.966;16.992;2022-11-15T08:14:42;95;72;42
57049;PMS7003;42935;50.966;16.992;2022-11-15T08:18:01;116;94;54
57049;PMS7003;42935;50.966;16.992;2022-11-15T08:21:39;102;87;52
57049;PMS7003;42935;50.966;16.992;2022-11-15T08:24:57;101;83;50
57049;PMS7003;42935;50.966;16.992;2022-11-15T08:28:41;90;72;41
57049;PMS7003;42935;50.966;16.992;2022-11-15T08:31:54;84;61;37
57049;PMS7003;42935;50.966;16.992;2022-11-15T08:35:07;80;61;38
57049;PMS7003;42935;50.966;16.992;2022-11-15T08:38:51;87;64;38
57049;PMS7003;42935;50.966;16.992;2022-11-15T08:42:09;76;60;36
57049;PMS7003;42935;50.966;16.992;2022-11-15T08:45:22;81;58;36
57049;PMS7003;42935;50.966;16.992;2022-11-15T08:49:06;79;59;36
57049;PMS7003;42935;50.966;16.992;2022-11-15T08:52:52;77;59;36
57049;PMS7003;42935;50.966;16.992;2022-11-15T08:56:10;80;58;35
57049;PMS7003;42935;50.966;16.992;2022-11-15T08:59:22;79;59;38
57049;PMS7003;42935;50.966;16.992;2022-11-15T09:02:33;77;60;37
57049;PMS7003;42935;50.966;16.992;2022-11-15T09:06:21;80;63;36
57049;PMS7003;42935;50.966;16.992;2022-11-15T09:10:05;80;60;37
57049;PMS7003;42935;50.966;16.992;2022-11-15T09:13:46;74;55;34
57049;PMS7003;42935;50.966;16.992;2022-11-15T09:17:08;79;59;36
57049;PMS7003;42935;50.966;16.992;2022-11-15T09:20:45;79;57;36
57049;PMS7003;42935;50.966;16.992;2022-11-15T09:23:54;78;60;36
57049;PMS7003;42935;50.966;16.992;2022-11-15T09:27:37;78;59;36
57049;PMS7003;42935;50.966;16.992;2022-11-15T09:30:47;78;56;35
57049;PMS7003;42935;50.966;16.992;2022-11-15T09:34:31;77;57;35
57049;PMS7003;42935;50.966;16.992;2022-11-15T09:37:46;74;58;36
57049;PMS7003;42935;50.966;16.992;2022-11-15T09:51:52;68;52;33
57049;PMS7003;42935;50.966;16.992;2022-11-15T09:55:08;66;51;31
57049;PMS7003;42935;50.966;16.992;2022-11-15T10:02:01;73;53;33
57049;PMS7003;42935;50.966;16.992;2022-11-15T10:05:51;80;61;36
57049;PMS7003;42935;50.966;16.992;2022-11-15T10:09:37;79;57;35
57049;PMS7003;42935;50.966;16.992;2022-11-15T10:13:33;71;52;33
57049;PMS7003;42935;50.966;16.992;2022-11-15T10:24:37;61;46;30
57049;PMS7003;42935;50.966;16.992;2022-11-15T10:27:58;63;49;31
57049;PMS7003;42935;50.966;16.992;2022-11-15T10:31:51;65;49;31
57049;PMS7003;42935;50.966;16.992;2022-11-15T10:35:31;60;46;29
57049;PMS7003;42935;50.966;16.992;2022-11-15T10:39:15;60;46;28
57049;PMS7003;42935;50.966;16.992;2022-11-15T10:54:02;58;44;28
57049;PMS7003;42935;50.966;16.992;2022-11-15T10:57:52;56;44;28
57049;PMS7003;42935;50.966;16.992;2022-11-15T11:01:31;60;44;28
57049;PMS7003;42935;50.966;16.992;2022-11-15T11:04:55;59;43;28
57049;PMS7003;42935;50.966;16.992;2022-11-15T11:08:34;57;41;26
57049;PMS7003;42935;50.966;16.992;2022-11-15T11:11:47;48;37;24
57049;PMS7003;42935;50.966;16.992;2022-11-15T11:15:08;45;37;23
57049;PMS7003;42935;50.966;16.992;2022-11-15T11:18:32;49;36;22
57049;PMS7003;42935;50.966;16.992;2022-11-15T11:47:01;47;37;24
57049;PMS7003;42935;50.966;16.992;2022-11-15T11:50:23;48;38;25
57049;PMS7003;42935;50.966;16.992;2022-11-15T11:53:42;44;35;24
57049;PMS7003;42935;50.966;16.992;2022-11-15T11:57:00;41;36;24
57049;PMS7003;42935;50.966;16.992;2022-11-15T12:00:22;52;41;25
57049;PMS7003;42935;50.966;16.992;2022-11-15T12:07:30;49;38;23
57049;PMS7003;42935;50.966;16.992;2022-11-15T12:11:14;46;34;22
57049;PMS7003;42935;50.966;16.992;2022-11-15T12:18:35;50;37;23
57049;PMS7003;42935;50.966;16.992;2022-11-15T12:22:20;51;39;25
57049;PMS7003;42935;50.966;16.992;2022-11-15T12:25:47;46;37;23
57049;PMS7003;42935;50.966;16.992;2022-11-15T12:33:34;48;38;24
57049;PMS7003;42935;50.966;16.992;2022-11-15T12:41:15;52;43;28
57049;PMS7003;42935;50.966;16.992;2022-11-15T12:44:57;62;49;32
57049;PMS7003;42935;50.966;16.992;2022-11-15T12:52:06;52;41;25
57049;PMS7003;42935;50.966;16.992;2022-11-15T13:03:34;61;46;30
57049;PMS7003;42935;50.966;16.992;2022-11-15T13:10:36;59;46;29
57049;PMS7003;42935;50.966;16.992;2022-11-15T13:22:04;47;38;26
57049;PMS7003;42935;50.966;16.992;2022-11-15T13:26:20;50;36;23
57049;PMS7003;42935;50.966;16.992;2022-11-15T13:29:52;47;39;24
57049;PMS7003;42935;50.966;16.992;2022-11-15T13:33:37;47;38;24
57049;PMS7003;42935;50.966;16.992;2022-11-15T13:41:19;45;36;22
57049;PMS7003;42935;50.966;16.992;2022-11-15T13:45:04;40;35;23
57049;PMS7003;42935;50.966;16.992;2022-11-15T13:48:21;40;33;22
57049;PMS7003;42935;50.966;16.992;2022-11-15T13:52:04;43;37;22
57049;PMS7003;42935;50.966;16.992;2022-11-15T13:55:53;45;36;24
57049;PMS7003;42935;50.966;16.992;2022-11-15T13:59:23;45;37;24
57049;PMS7003;42935;50.966;16.992;2022-11-15T14:06:54;47;37;23
57049;PMS7003;42935;50.966;16.992;2022-11-15T14:18:03;46;38;24
57049;PMS7003;42935;50.966;16.992;2022-11-15T14:25:29;45;35;23
57049;PMS7003;42935;50.966;16.992;2022-11-15T14:37:03;42;36;24
57049;PMS7003;42935;50.966;16.992;2022-11-15T14:40:21;43;33;22
57049;PMS7003;42935;50.966;16.992;2022-11-15T14:43:39;46;36;24
57049;PMS7003;42935;50.966;16.992;2022-11-15T14:47:29;49;37;22
57049;PMS7003;42935;50.966;16.992;2022-11-15T14:50:43;46;36;24
57049;PMS7003;42935;50.966;16.992;2022-11-15T14:53:53;44;36;24
57049;PMS7003;42935;50.966;16.992;2022-11-15T14:57:40;45;36;22
57049;PMS7003;42935;50.966;16.992;2022-11-15T15:01:25;45;34;22
57049;PMS7003;42935;50.966;16.992;2022-11-15T15:08:58;50;39;23
57049;PMS7003;42935;50.966;16.992;2022-11-15T15:12:18;47;36;23
57049;PMS7003;42935;50.966;16.992;2022-11-15T15:16:04;49;37;23
57049;PMS7003;42935;50.966;16.992;2022-11-15T15:19:23;45;35;22
57049;PMS7003;42935;50.966;16.992;2022-11-15T15:23:04;50;37;25
57049;PMS7003;42935;50.966;16.992;2022-11-15T15:26:42;49;40;25
57049;PMS7003;42935;50.966;16.992;2022-11-15T15:30:22;50;37;25
57049;PMS7003;42935;50.966;16.992;2022-11-15T15:33:32;51;41;25
57049;PMS7003;42935;50.966;16.992;2022-11-15T15:37:24;48;38;23
57049;PMS7003;42935;50.966;16.992;2022-11-15T15:41:15;48;38;24
57049;PMS7003;42935;50.966;16.992;2022-11-15T15:44:55;49;39;24
57049;PMS7003;42935;50.966;16.992;2022-11-15T15:48:37;50;38;24
57049;PMS7003;42935;50.966;16.992;2022-11-15T15:52:18;53;43;25
57049;PMS7003;42935;50.966;16.992;2022-11-15T15:56:05;55;44;26
57049;PMS7003;42935;50.966;16.992;2022-11-15T15:59:53;55;42;26
57049;PMS7003;42935;50.966;16.992;2022-11-15T16:03:37;57;43;26
57049;PMS7003;42935;50.966;16.992;2022-11-15T16:07:20;65;50;30
57049;PMS7003;42935;50.966;16.992;2022-11-15T16:11:08;78;63;36
57049;PMS7003;42935;50.966;16.992;2022-11-15T16:14:56;86;66;37
57049;PMS7003;42935;50.966;16.992;2022-11-15T16:18:36;76;53;33
57049;PMS7003;42935;50.966;16.992;2022-11-15T16:22:22;62;48;29
57049;PMS7003;42935;50.966;16.992;2022-11-15T16:26:14;61;47;29
57049;PMS7003;42935;50.966;16.992;2022-11-15T16:30:03;68;51;31
57049;PMS7003;42935;50.966;16.992;2022-11-15T16:33:43;63;48;32
57049;PMS7003;42935;50.966;16.992;2022-11-15T16:36:55;64;50;31
57049;PMS7003;42935;50.966;16.992;2022-11-15T16:44:03;63;48;32
57049;PMS7003;42935;50.966;16.992;2022-11-15T16:47:50;62;49;30
57049;PMS7003;42935;50.966;16.992;2022-11-15T16:51:31;81;59;36
57049;PMS7003;42935;50.966;16.992;2022-11-15T16:55:16;79;61;36
57049;PMS7003;42935;50.966;16.992;2022-11-15T16:58:29;71;51;32
57049;PMS7003;42935;50.966;16.992;2022-11-15T17:02:20;67;51;32
57049;PMS7003;42935;50.966;16.992;2022-11-15T17:05:36;67;49;30
57049;PMS7003;42935;50.966;16.992;2022-11-15T17:09:22;52;41;25
57049;PMS7003;42935;50.966;16.992;2022-11-15T17:13:02;61;45;29
57049;PMS7003;42935;50.966;16.992;2022-11-15T17:16:43;64;48;30
57049;PMS7003;42935;50.966;16.992;2022-11-15T17:20:28;63;48;29
57049;PMS7003;42935;50.966;16.992;2022-11-15T17:24:10;63;47;29
57049;PMS7003;42935;50.966;16.992;2022-11-15T17:27:55;59;44;28
57049;PMS7003;42935;50.966;16.992;2022-11-15T17:31:13;64;46;29
57049;PMS7003;42935;50.966;16.992;2022-11-15T17:35:02;68;53;31
57049;PMS7003;42935;50.966;16.992;2022-11-15T17:38:20;61;46;30
57049;PMS7003;42935;50.966;16.992;2022-11-15T17:41:30;65;48;30
57049;PMS7003;42935;50.966;16.992;2022-11-15T17:45:17;59;45;28
57049;PMS7003;42935;50.966;16.992;2022-11-15T17:48:59;63;46;29
57049;PMS7003;42935;50.966;16.992;2022-11-15T17:52:39;62;48;30
57049;PMS7003;42935;50.966;16.992;2022-11-15T17:56:21;66;50;31
57049;PMS7003;42935;50.966;16.992;2022-11-15T18:00:04;68;51;32
57049;PMS7003;42935;50.966;16.992;2022-11-15T18:03:44;72;54;34
57049;PMS7003;42935;50.966;16.992;2022-11-15T18:07:24;76;56;35
57049;PMS7003;42935;50.966;16.992;2022-11-15T18:10:38;173;127;67
57049;PMS7003;42935;50.966;16.992;2022-11-15T18:14:23;232;161;80
57049;PMS7003;42935;50.966;16.992;2022-11-15T18:18:01;235;168;82
57049;PMS7003;42935;50.966;16.992;2022-11-15T18:21:44;257;183;93
57049;PMS7003;42935;50.966;16.992;2022-11-15T18:25:39;230;166;83
57049;PMS7003;42935;50.966;16.992;2022-11-15T18:29:20;168;125;67
57049;PMS7003;42935;50.966;16.992;2022-11-15T18:33:04;148;111;56
57049;PMS7003;42935;50.966;16.992;2022-11-15T18:36:53;112;89;48
57049;PMS7003;42935;50.966;16.992;2022-11-15T18:40:34;81;59;37
57049;PMS7003;42935;50.966;16.992;2022-11-15T18:44:17;64;47;30
57049;PMS7003;42935;50.966;16.992;2022-11-15T18:48:05;60;47;28
57049;PMS7003;42935;50.966;16.992;2022-11-15T18:51:46;64;47;29
57049;PMS7003;42935;50.966;16.992;2022-11-15T18:55:30;64;45;29
57049;PMS7003;42935;50.966;16.992;2022-11-15T18:59:16;74;54;34
57049;PMS7003;42935;50.966;16.992;2022-11-15T19:02:24;61;43;26
57049;PMS7003;42935;50.966;16.992;2022-11-15T19:06:15;72;53;33
57049;PMS7003;42935;50.966;16.992;2022-11-15T19:09:33;74;50;32
57049;PMS7003;42935;50.966;16.992;2022-11-15T19:13:15;63;47;29
57049;PMS7003;42935;50.966;16.992;2022-11-15T19:17:03;64;48;29
57049;PMS7003;42935;50.966;16.992;2022-11-15T19:20:10;65;48;30
57049;PMS7003;42935;50.966;16.992;2022-11-15T19:23:31;63;47;29
57049;PMS7003;42935;50.966;16.992;2022-11-15T19:27:16;63;47;29
57049;PMS7003;42935;50.966;16.992;2022-11-15T19:31:09;77;59;34
57049;PMS7003;42935;50.966;16.992;2022-11-15T19:34:23;80;59;35
57049;PMS7003;42935;50.966;16.992;2022-11-15T19:37:37;82;62;36
57049;PMS7003;42935;50.966;16.992;2022-11-15T19:41:25;82;63;36
57049;PMS7003;42935;50.966;16.992;2022-11-15T19:44:44;81;62;37
57049;PMS7003;42935;50.966;16.992;2022-11-15T19:48:27;81;58;35
57049;PMS7003;42935;50.966;16.992;2022-11-15T19:52:14;80;63;37
57049;PMS7003;42935;50.966;16.992;2022-11-15T19:55:59;86;68;39
57049;PMS7003;42935;50.966;16.992;2022-11-15T19:59:49;94;73;43
57049;PMS7003;42935;50.966;16.992;2022-11-15T20:03:38;77;64;38
57049;PMS7003;42935;50.966;16.992;2022-11-15T20:07:22;85;66;39
57049;PMS7003;42935;50.966;16.992;2022-11-15T20:11:00;83;63;38
57049;PMS7003;42935;50.966;16.992;2022-11-15T20:14:51;79;57;36
57049;PMS7003;42935;50.966;16.992;2022-11-15T20:18:08;74;55;34
57049;PMS7003;42935;50.966;16.992;2022-11-15T20:21:49;71;53;33
57049;PMS7003;42935;50.966;16.992;2022-11-15T20:25:03;76;56;35
57049;PMS7003;42935;50.966;16.992;2022-11-15T20:28:48;77;59;36
57049;PMS7003;42935;50.966;16.992;2022-11-15T20:32:29;79;60;37
57049;PMS7003;42935;50.966;16.992;2022-11-15T20:36:11;73;55;36
57049;PMS7003;42935;50.966;16.992;2022-11-15T20:39:22;79;57;36
57049;PMS7003;42935;50.966;16.992;2022-11-15T20:42:43;79;56;35
57049;PMS7003;42935;50.966;16.992;2022-11-15T20:46:31;79;58;37
57049;PMS7003;42935;50.966;16.992;2022-11-15T20:49:49;86;65;38
57049;PMS7003;42935;50.966;16.992;2022-11-15T20:53:07;79;63;37
57049;PMS7003;42935;50.966;16.992;2022-11-15T20:56:27;85;64;38
57049;PMS7003;42935;50.966;16.992;2022-11-15T21:00:12;77;58;36
57049;PMS7003;42935;50.966;16.992;2022-11-15T21:03:20;74;58;37
57049;PMS7003;42935;50.966;16.992;2022-11-15T21:06:33;83;62;38
57049;PMS7003;42935;50.966;16.992;2022-11-15T21:09:51;73;55;34
57049;PMS7003;42935;50.966;16.992;2022-11-15T21:13:49;80;60;37
57049;PMS7003;42935;50.966;16.992;2022-11-15T21:17:33;81;60;37
57049;PMS7003;42935;50.966;16.992;2022-11-15T21:21:21;83;62;38
57049;PMS7003;42935;50.966;16.992;2022-11-15T21:24:38;80;63;38
57049;PMS7003;42935;50.966;16.992;2022-11-15T21:28:23;87;67;38
57049;PMS7003;42935;50.966;16.992;2022-11-15T21:32:05;83;61;38
57049;PMS7003;42935;50.966;16.992;2022-11-15T21:35:54;71;55;32
57049;PMS7003;42935;50.966;16.992;2022-11-15T21:39:38;84;68;39
57049;PMS7003;42935;50.966;16.992;2022-11-15T21:43:22;76;60;34
57049;PMS7003;42935;50.966;16.992;2022-11-15T21:47:10;85;67;40
57049;PMS7003;42935;50.966;16.992;2022-11-15T21:50:59;90;71;40
57049;PMS7003;42935;50.966;16.992;2022-11-15T21:54:11;94;73;43
57049;PMS7003;42935;50.966;16.992;2022-11-15T21:57:37;87;70;39
57049;PMS7003;42935;50.966;16.992;2022-11-15T22:00:52;89;73;43
57049;PMS7003;42935;50.966;16.992;2022-11-15T22:04:53;100;80;47
57049;PMS7003;42935;50.966;16.992;2022-11-15T22:08:40;95;77;45
57049;PMS7003;42935;50.966;16.992;2022-11-15T22:11:57;93;76;45
57049;PMS7003;42935;50.966;16.992;2022-11-15T22:15:43;88;69;40
57049;PMS7003;42935;50.966;16.992;2022-11-15T22:18:56;69;54;31
57049;PMS7003;42935;50.966;16.992;2022-11-15T22:22:40;82;63;38
57049;PMS7003;42935;50.966;16.992;2022-11-15T22:26:23;83;63;38
57049;PMS7003;42935;50.966;16.992;2022-11-15T22:29:42;81;63;39
57049;PMS7003;42935;50.966;16.992;2022-11-15T22:32:53;81;65;38
57049;PMS7003;42935;50.966;16.992;2022-11-15T22:36:04;81;67;40
57049;PMS7003;42935;50.966;16.992;2022-11-15T22:39:48;84;64;37
57049;PMS7003;42935;50.966;16.992;2022-11-15T22:43:36;83;65;40
57049;PMS7003;42935;50.966;16.992;2022-11-15T22:47:20;94;68;39
57049;PMS7003;42935;50.966;16.992;2022-11-15T22:50:33;84;67;39
57049;PMS7003;42935;50.966;16.992;2022-11-15T22:54:16;96;75;42
57049;PMS7003;42935;50.966;16.992;2022-11-15T22:58:01;85;65;39
57049;PMS7003;42935;50.966;16.992;2022-11-15T23:01:39;84;67;39
57049;PMS7003;42935;50.966;16.992;2022-11-15T23:04:54;86;66;41
57049;PMS7003;42935;50.966;16.992;2022-11-15T23:08:35;88;70;42
57049;PMS7003;42935;50.966;16.992;2022-11-15T23:12:14;89;72;43
57049;PMS7003;42935;50.966;16.992;2022-11-15T23:16:13;90;71;42
57049;PMS7003;42935;50.966;16.992;2022-11-15T23:20:06;88;71;40
57049;PMS7003;42935;50.966;16.992;2022-11-15T23:23:54;90;69;42
57049;PMS7003;42935;50.966;16.992;2022-11-15T23:27:42;87;70;41
57049;PMS7003;42935;50.966;16.992;2022-11-15T23:31:26;87;66;39
57049;PMS7003;42935;50.966;16.992;2022-11-15T23:34:54;107;87;51
57049;PMS7003;42935;50.966;16.992;2022-11-15T23:38:39;117;95;56
57049;PMS7003;42935;50.966;16.992;2022-11-15T23:41:55;95;74;45
57049;PMS7003;42935;50.966;16.992;2022-11-15T23:45:36;87;71;42
57049;PMS7003;42935;50.966;16.992;2022-11-15T23:49:20;124;100;57
57049;PMS7003;42935;50.966;16.992;2022-11-15T23:52:35;155;115;65
57049;PMS7003;42935;50.966;16.992;2022-11-15T23:56:15;140;108;58
